Agdam, Azerbaijan

9:40 AM AZST on July 29, 2014 (GMT +0500)
Gyandzha (UBBG) Elev 1083 ft | 40.74 °N, 46.32 °E | Change Station

Current weather conditions updated 10 minutes ago

Mostly Cloudy
Mostly Cloudy
75 °F
Feels Like 75 °F
N
10
Wind Variable Wind from WNW

Today is forecast to be Much Cooler than yesterday.

Today
High -- | Low -- °F
--% Chance of Precip.
Yesterday
High -- | Low -- °F
Precip. -- in
6:48 AM 9:10 PM
Waxing Crescent, 5% visible
Pressure 29.95 in
Visibility 6.2 miles
Clouds Mostly Cloudy 8300 ft
Dew Point 46 °F
Humidity 36%
Rainfall 0.00 in
Snow Depth Not available.
UV 1 out of 12
Pollen Not available.
Air Quality Not available.
Flu Activity Not available.
METAR UBBG 290430Z 29009KT 9999 BKN083 24/08 Q1014 R30/CLRD70 NOSIG

More Conditions Fewer Conditions

Pressure 29.95 in
Visibility 6.2 miles
Clouds Mostly Cloudy 8300 ft
Dew Point 46 °F
Humidity 36%
Rainfall 0.00 in
Snow Depth Not available.
UV 1 out of 12
Pollen Not available.
Air Quality Not available.
Flu Activity Not available.
METAR UBBG 290430Z 29009KT 9999 BKN083 24/08 Q1014 R30/CLRD70 NOSIG

More Conditions Fewer Conditions

10-Day Weather Forecast

Almanac

Astronomy

Jul. 29, 2014 Rise Set
Actual Time 6:48 AM AZST 9:10 PM AZST
Civil Twilight 6:17 AM AZST 9:40 PM AZST
Nautical Twilight 5:39 AM AZST 10:18 PM AZST
Astronomical Twilight 4:58 AM AZST 10:59 PM AZST
Moon 9:03 AM AZST 10:11 PM AZST
Length of Visible Light 15h 22m
Length of Day
14h 21m
Tomorrow will be 1m 54s shorter.
Waxing Crescent, 5% of the Moon is Illuminated
Today
Waxing Crescent
Aug 3
First Quarter
Aug 10
Full
Aug 17
Last Quarter
Aug 25
New

Yesterday's Extremes

Country Highs Country Lows

Community

WunderPhotos

Upload Photos

1,738,634 photos uploaded!

Nearby

Snow Depth

Not available.

Earthquake Activity

City Distance Mag. Time & Date
No recent earthquake activity has been reported nearby.
Minimum magnitude displayed is 2.5.

Coastal Water Temperatures

Place Temperature
No Stations Reporting

Nearby Weather Stations

There are no personal weather stations in this area.